Weather at Lone Butte Landing Strip [CLOSED]

Public forecast

Using degrees Fahrenheit for public forecast. Weather courtesy of forecast.io.

Closest aviation weather report (METAR) to Lone Butte Landing Strip

Report is more than 6 hours old.

Closest report is Chandler Municipal Airport, 6.6 nm (12.3 km) E. Retrieved 2021/06/23 03:47 UTC (8 hours ago):

KCHD 230347Z 05006KT 10SM SCT070 BKN100 38/07 A2983 RMK LAST

Closest aviation forecast (TAF) to Lone Butte Landing Strip

Closest forecast is Phoenix Sky Harbor International Airport, 9.3 nm (17.3 km) NNW. Retrieved 2021/06/23 12:42 UTC (0 seconds ago):

TAF KPHX 231138Z 2312/2418 14007KT P6SM VCSH SCT070 BKN100 BKN200 TEMPO 2312/2316 33008G18KT -SHRA FM231600 27008G17KT P6SM SCT070 BKN100 BKN180 FM232000 26008G17KT P6SM VCSH SCT080 BKN100 BKN180 PROB30 2321/2324 29015G25KT 5SM -TSRA BKN080CB BKN100 BKN150 FM240500 15005KT P6SM FEW100 FEW250 FM241700 10005KT P6SM SKC